Grasshopper Junction, Arizona
Current Conditions -  °F | °C
As of 10:51 PM on Friday 28 Nov 2014 (Local Time) from KIGM Reporting Station
Clear Clear  
Wind Chill: 42°   Ceiling: Unl
Heat Index: 42°   Visibility: 10mi
Dew Point: 12°   Wind: 0mph
Humidity: 29%   Direction: NA
Pressure: 29.98"   Gusts: NA
Location:  35.2036°N, 114.02°W
Report Text: KIGM 290551Z AUTO 00000KT 10SM CLR 06/M11 A2998 RMK AO2 SLP109 T00561111 10200 20056 53001
Loading
Personal Weather Stations






























Interactive Weather Map New forecast layout! Learn more

10-Day Weather Forecast

Advertisements
Track Severe Weather on mobile